createdAt,value
2022-12-31T00:02:48.063Z,99441.84
2022-12-31T00:07:49.760Z,99432.59
2022-12-31T00:12:51.251Z,99446.34
2022-12-31T00:17:52.736Z,99453.56
2022-12-31T00:22:54.247Z,99473.25
2022-12-31T00:27:55.830Z,99465.66
2022-12-31T00:32:57.315Z,99468.59
2022-12-31T00:37:58.798Z,99469.66
2022-12-31T00:43:00.261Z,99479.41
2022-12-31T00:48:01.758Z,99487.53
2022-12-31T00:53:03.237Z,99501.22
2022-12-31T00:58:04.721Z,99502.84
2022-12-31T01:03:06.301Z,99498.94
2022-12-31T01:08:07.838Z,99507.69
2022-12-31T01:13:09.387Z,99502.69
2022-12-31T01:18:10.896Z,99519.59
2022-12-31T01:23:12.392Z,99524.03
2022-12-31T01:28:13.863Z,99534.09
2022-12-31T01:33:15.377Z,99520.38
2022-12-31T01:38:17.899Z,99517.34
2022-12-31T01:43:19.674Z,99512.56
2022-12-31T01:48:23.895Z,99520.69
2022-12-31T01:53:25.378Z,99533.13
2022-12-31T01:58:31.595Z,99541.44
2022-12-31T02:03:33.171Z,99525.13
2022-12-31T02:08:41.625Z,99542.94
2022-12-31T02:13:43.523Z,99540.94
2022-12-31T02:19:29.066Z,99533.03
2022-12-31T02:24:54.041Z,99532.66
2022-12-31T02:30:19.429Z,99535.91
2022-12-31T02:35:22.295Z,99545.84
2022-12-31T02:40:23.804Z,99548.81
2022-12-31T02:45:32.077Z,99555.22
2022-12-31T02:50:56.525Z,99552.72
2022-12-31T02:56:12.634Z,99565.41
2022-12-31T03:01:49.510Z,99551.88
2022-12-31T03:06:51.715Z,99563.22
2022-12-31T03:12:11.608Z,99562.75
2022-12-31T03:17:13.082Z,99558.94
2022-12-31T03:22:29.497Z,99566.28
2022-12-31T03:27:30.987Z,99563.84
2022-12-31T03:32:32.444Z,99550.75
2022-12-31T03:37:33.938Z,99546.56
2022-12-31T03:42:35.432Z,99542.84
2022-12-31T03:47:36.944Z,99537.03
2022-12-31T03:52:38.409Z,99527.63
2022-12-31T03:57:39.909Z,99526.34
2022-12-31T04:02:41.647Z,99532.66
2022-12-31T04:07:43.212Z,99545.06
2022-12-31T04:12:44.876Z,99541.75
2022-12-31T04:17:46.502Z,99556.22
2022-12-31T04:22:48.056Z,99553.75
2022-12-31T04:27:49.529Z,99556.63
2022-12-31T04:32:53.933Z,99553.59
2022-12-31T04:37:55.425Z,99541.53
2022-12-31T04:42:56.912Z,99556.78
2022-12-31T04:47:58.421Z,99534.50
2022-12-31T04:52:59.890Z,99535.22
2022-12-31T04:58:01.378Z,99546.19
2022-12-31T05:03:02.917Z,99566.03
2022-12-31T05:08:04.456Z,99560.34
2022-12-31T05:13:05.948Z,99561.25
2022-12-31T05:18:07.754Z,99552.31
2022-12-31T05:23:09.248Z,99550.28
2022-12-31T05:28:10.854Z,99553.16
2022-12-31T05:33:12.348Z,99560.53
2022-12-31T05:38:13.825Z,99579.16
2022-12-31T05:43:15.421Z,99604.22
2022-12-31T05:48:19.539Z,99604.31
2022-12-31T05:53:21.010Z,99613.81
2022-12-31T05:58:22.499Z,99594.75
2022-12-31T06:03:24.037Z,99604.13
2022-12-31T06:08:25.547Z,99591.88
2022-12-31T06:13:27.072Z,99577.53
2022-12-31T06:18:28.545Z,99582.75
2022-12-31T06:23:30.098Z,99569.50
2022-12-31T06:28:31.665Z,99568.25
2022-12-31T06:33:33.333Z,99567.72
2022-12-31T06:38:43.383Z,99569.91
2022-12-31T06:43:45.015Z,99567.25
2022-12-31T06:48:46.508Z,99589.94
2022-12-31T06:53:49.075Z,99582.72
2022-12-31T06:58:50.941Z,99594.69
2022-12-31T07:04:29.643Z,99609.94
2022-12-31T07:09:34.483Z,99618.34
2022-12-31T07:14:41.456Z,99620.09
2022-12-31T07:20:03.208Z,99616.00
2022-12-31T07:25:06.645Z,99612.38
2022-12-31T07:30:29.635Z,99610.91
2022-12-31T07:35:37.546Z,99622.53
2022-12-31T07:40:47.903Z,99615.25
2022-12-31T07:45:52.732Z,99621.13
2022-12-31T07:50:55.474Z,99626.97
2022-12-31T07:55:59.845Z,99619.28
2022-12-31T08:01:01.468Z,99620.28
2022-12-31T08:06:24.613Z,99617.13
2022-12-31T08:11:37.799Z,99636.56
2022-12-31T08:16:39.559Z,99636.38
2022-12-31T08:22:16.505Z,99647.88
2022-12-31T08:27:28.238Z,99650.28
2022-12-31T08:32:48.381Z,99646.28
2022-12-31T08:37:59.322Z,99645.00
2022-12-31T08:43:13.337Z,99639.59
2022-12-31T08:48:14.718Z,99645.81
2022-12-31T08:53:16.366Z,99642.25
2022-12-31T08:58:37.257Z,99651.97
2022-12-31T09:04:06.057Z,99655.22
2022-12-31T09:09:22.763Z,99646.28
2022-12-31T09:14:44.652Z,99640.25
2022-12-31T09:19:46.228Z,99634.97
2022-12-31T09:24:47.922Z,99631.91
2022-12-31T09:29:49.314Z,99618.28
2022-12-31T09:35:25.630Z,99626.81
2022-12-31T09:40:50.845Z,99638.69
2022-12-31T09:46:04.319Z,99628.25
2022-12-31T09:51:38.226Z,99643.13
2022-12-31T09:56:45.729Z,99635.16
2022-12-31T10:02:16.097Z,99649.28
2022-12-31T10:07:48.774Z,99641.47
2022-12-31T10:13:35.293Z,99652.31
2022-12-31T10:19:02.700Z,99641.31
2022-12-31T10:24:42.397Z,99633.78
2022-12-31T10:29:47.459Z,99631.56
2022-12-31T10:35:00.713Z,99627.19
2022-12-31T10:40:23.539Z,99599.47
2022-12-31T10:45:30.752Z,99594.88
2022-12-31T10:50:54.894Z,99582.97
2022-12-31T10:56:16.108Z,99584.63
2022-12-31T11:01:26.611Z,99577.28
2022-12-31T11:07:11.824Z,99573.22
2022-12-31T11:12:44.236Z,99558.06
2022-12-31T11:17:59.202Z,99548.44
2022-12-31T11:23:07.476Z,99537.13
2022-12-31T11:28:21.632Z,99521.81
2022-12-31T11:34:07.142Z,99491.53
2022-12-31T11:39:44.727Z,99478.25
2022-12-31T11:44:59.882Z,99473.88
2022-12-31T11:50:22.672Z,99502.03
2022-12-31T11:55:38.181Z,99499.22
2022-12-31T12:00:39.718Z,99493.16
2022-12-31T12:05:41.276Z,99482.31
2022-12-31T12:10:47.243Z,99485.63
2022-12-31T12:15:50.976Z,99484.59
2022-12-31T12:20:52.894Z,99495.56
2022-12-31T12:25:54.401Z,99483.53
2022-12-31T12:30:57.560Z,99473.28
2022-12-31T12:36:13.112Z,99492.88
2022-12-31T12:41:23.888Z,99508.84
2022-12-31T12:46:37.194Z,99509.47
2022-12-31T12:52:23.429Z,99492.25
2022-12-31T12:57:40.581Z,99513.09
2022-12-31T13:02:52.300Z,99524.00
2022-12-31T13:08:22.988Z,99509.53
2022-12-31T13:13:33.574Z,99527.72
2022-12-31T13:18:56.727Z,99522.44
2022-12-31T13:24:25.731Z,99511.16
2022-12-31T13:29:29.111Z,99522.50
2022-12-31T13:34:32.093Z,99534.16
2022-12-31T13:39:37.187Z,99559.94
2022-12-31T13:44:56.251Z,99548.19
2022-12-31T13:50:14.295Z,99531.34
2022-12-31T13:55:20.417Z,99555.03
2022-12-31T14:00:32.353Z,99579.72
2022-12-31T14:05:34.781Z,99572.31
2022-12-31T14:10:40.561Z,99575.25
2022-12-31T14:15:47.208Z,99577.38
2022-12-31T14:20:52.569Z,99583.81
2022-12-31T14:25:56.910Z,99559.72
2022-12-31T14:31:08.739Z,99606.34
2022-12-31T14:36:18.432Z,99615.94
2022-12-31T14:41:44.704Z,99604.72
2022-12-31T14:46:56.315Z,99628.38
2022-12-31T14:52:08.692Z,99636.72
2022-12-31T14:57:11.234Z,99643.47
2022-12-31T15:02:33.052Z,99657.44
2022-12-31T15:07:43.532Z,99642.44
2022-12-31T15:12:51.031Z,99666.97
2022-12-31T15:18:11.078Z,99682.22
2022-12-31T15:23:14.658Z,99676.03
2022-12-31T15:28:35.349Z,99689.31
2022-12-31T15:33:38.863Z,99693.81
2022-12-31T15:38:41.261Z,99705.72
2022-12-31T15:43:50.827Z,99696.16
2022-12-31T15:49:03.461Z,99714.94
2022-12-31T15:54:05.922Z,99709.28
2022-12-31T15:59:12.108Z,99711.88
2022-12-31T16:04:17.495Z,99715.78
2022-12-31T16:09:29.612Z,99738.53
2022-12-31T16:14:36.545Z,99753.69
2022-12-31T16:19:42.658Z,99759.78
2022-12-31T16:25:19.345Z,99761.31
2022-12-31T16:30:07.924Z,99760.56
2022-12-31T16:35:36.220Z,99769.13
2022-12-31T16:40:37.877Z,99755.22
2022-12-31T16:45:39.387Z,99747.25
2022-12-31T16:50:43.782Z,99721.63
2022-12-31T16:55:51.797Z,99742.84
2022-12-31T17:00:53.286Z,99724.91
2022-12-31T17:06:06.706Z,99719.59
2022-12-31T17:11:25.965Z,99722.50
2022-12-31T17:16:27.850Z,99736.38
2022-12-31T17:21:30.602Z,99755.06
2022-12-31T17:26:35.877Z,99736.09
2022-12-31T17:31:38.779Z,99746.47
2022-12-31T17:36:41.402Z,99744.66
2022-12-31T17:41:47.197Z,99731.44
2022-12-31T17:46:51.974Z,99742.81
2022-12-31T17:51:53.537Z,99743.97
2022-12-31T17:56:55.014Z,99744.41
2022-12-31T18:01:58.384Z,99751.81
2022-12-31T18:06:59.943Z,99740.78
2022-12-31T18:12:01.800Z,99752.28
2022-12-31T18:17:03.452Z,99750.69
2022-12-31T18:22:04.923Z,99744.50
2022-12-31T18:27:17.411Z,99739.53
2022-12-31T18:32:25.152Z,99730.44
2022-12-31T18:37:28.605Z,99735.28
2022-12-31T18:42:30.096Z,99727.28
2022-12-31T18:47:37.480Z,99733.09
2022-12-31T18:52:46.887Z,99724.47
2022-12-31T18:57:48.358Z,99744.59
2022-12-31T19:02:49.910Z,99726.81
2022-12-31T19:07:51.469Z,99728.75
2022-12-31T19:12:53.147Z,99737.56
2022-12-31T19:17:54.671Z,99739.41
2022-12-31T19:22:56.548Z,99731.09
2022-12-31T19:27:58.037Z,99737.03
2022-12-31T19:32:59.962Z,99730.41
2022-12-31T19:38:01.451Z,99741.25
2022-12-31T19:43:02.930Z,99716.78
2022-12-31T19:48:04.436Z,99727.06
2022-12-31T19:53:05.924Z,99715.13
2022-12-31T19:58:07.800Z,99698.94
2022-12-31T20:03:10.849Z,99700.31
2022-12-31T20:08:13.078Z,99680.41
2022-12-31T20:13:14.583Z,99680.22
2022-12-31T20:18:20.899Z,99686.16
2022-12-31T20:23:22.398Z,99683.84
2022-12-31T20:28:23.927Z,99671.38
2022-12-31T20:33:25.430Z,99667.50
2022-12-31T20:38:27.647Z,99661.34
2022-12-31T20:43:32.736Z,99656.41
2022-12-31T20:48:34.287Z,99654.00
2022-12-31T20:53:35.779Z,99652.13
2022-12-31T20:58:37.269Z,99667.44
2022-12-31T21:09:02.626Z,99678.56
2022-12-31T21:14:04.166Z,99682.50
2022-12-31T21:19:05.723Z,99680.66
2022-12-31T21:24:07.273Z,99681.56
2022-12-31T21:29:08.751Z,99682.34
2022-12-31T21:34:10.271Z,99682.47
2022-12-31T21:39:11.752Z,99683.72
2022-12-31T21:44:13.537Z,99667.66
2022-12-31T21:49:15.042Z,99667.72
2022-12-31T21:54:36.489Z,99658.50
2022-12-31T22:00:23.906Z,99650.06
2022-12-31T22:05:24.825Z,99650.66
2022-12-31T22:10:26.700Z,99663.34
2022-12-31T22:15:28.207Z,99654.00
2022-12-31T22:20:29.709Z,99673.78
2022-12-31T22:25:33.844Z,99666.19
2022-12-31T22:30:35.351Z,99655.03
2022-12-31T22:35:36.897Z,99651.31
2022-12-31T22:40:38.481Z,99666.00
2022-12-31T22:45:39.947Z,99673.78
2022-12-31T22:50:41.408Z,99666.34
2022-12-31T22:55:42.904Z,99677.41
2022-12-31T23:00:44.401Z,99677.06
2022-12-31T23:05:49.245Z,99668.97
2022-12-31T23:11:00.429Z,99666.44
2022-12-31T23:16:20.689Z,99671.22
2022-12-31T23:21:40.576Z,99659.38
2022-12-31T23:26:42.109Z,99659.22
2022-12-31T23:31:43.632Z,99692.75
2022-12-31T23:36:45.189Z,99674.06
2022-12-31T23:41:46.757Z,99686.81
2022-12-31T23:46:48.288Z,99681.41
2022-12-31T23:51:49.822Z,99685.03
2022-12-31T23:56:51.332Z,99682.41
